createdAt,value
2023-01-13T00:01:21.027Z,8.80
2023-01-13T00:03:48.832Z,8.80
2023-01-13T00:06:22.392Z,8.70
2023-01-13T00:08:50.707Z,8.70
2023-01-13T00:11:19.396Z,8.60
2023-01-13T00:13:46.557Z,8.60
2023-01-13T00:16:17.525Z,8.50
2023-01-13T00:18:45.479Z,8.50
2023-01-13T00:21:19.268Z,8.50
2023-01-13T00:23:47.387Z,8.40
2023-01-13T00:26:23.915Z,8.50
2023-01-13T00:28:51.677Z,8.40
2023-01-13T00:31:21.187Z,8.40
2023-01-13T00:33:51.493Z,8.40
2023-01-13T00:36:20.545Z,8.30
2023-01-13T00:38:48.148Z,8.30
2023-01-13T00:41:22.953Z,8.20
2023-01-13T00:43:50.297Z,8.20
2023-01-13T00:46:20.814Z,8.10
2023-01-13T00:48:48.509Z,8.10
2023-01-13T00:51:20.468Z,8.10
2023-01-13T00:53:52.326Z,8.10
2023-01-13T00:56:38.520Z,7.90
2023-01-13T00:59:07.230Z,7.90
2023-01-13T01:01:34.534Z,7.80
2023-01-13T01:04:01.514Z,7.80
2023-01-13T01:06:29.025Z,7.80
2023-01-13T01:08:56.933Z,7.80
2023-01-13T01:11:28.767Z,7.80
2023-01-13T01:13:58.153Z,7.80
2023-01-13T01:16:28.153Z,7.80
2023-01-13T01:18:55.930Z,7.90
2023-01-13T01:21:25.280Z,7.90
2023-01-13T01:23:52.401Z,7.90
2023-01-13T01:26:25.216Z,8.00
2023-01-13T01:28:53.396Z,8.00
2023-01-13T01:31:31.444Z,8.00
2023-01-13T01:34:00.071Z,7.90
2023-01-13T01:36:31.760Z,7.90
2023-01-13T01:38:59.938Z,8.00
2023-01-13T01:41:31.586Z,8.00
2023-01-13T01:44:08.396Z,8.00
2023-01-13T01:46:43.957Z,8.00
2023-01-13T01:49:30.771Z,8.00
2023-01-13T01:52:08.308Z,7.90
2023-01-13T01:55:00.173Z,7.90
2023-01-13T01:57:38.064Z,7.90
2023-01-13T02:00:06.542Z,7.80
2023-01-13T02:02:40.487Z,7.80
2023-01-13T02:05:08.312Z,7.80
2023-01-13T02:07:38.827Z,7.80
2023-01-13T02:10:11.194Z,7.80
2023-01-13T02:12:40.548Z,7.80
2023-01-13T02:15:21.796Z,7.80
2023-01-13T02:18:10.468Z,7.80
2023-01-13T02:20:45.841Z,7.80
2023-01-13T02:24:13.931Z,7.80
2023-01-13T02:27:15.905Z,7.80
2023-01-13T02:30:07.385Z,7.80
2023-01-13T02:32:58.434Z,7.80
2023-01-13T02:35:36.597Z,7.80
2023-01-13T02:38:05.368Z,7.80
2023-01-13T02:40:46.463Z,7.80
2023-01-13T02:43:58.107Z,7.80
2023-01-13T02:46:43.350Z,7.70
2023-01-13T02:49:20.381Z,7.70
2023-01-13T02:51:49.376Z,7.70
2023-01-13T02:54:22.704Z,7.60
2023-01-13T02:56:53.174Z,7.60
2023-01-13T02:59:22.123Z,7.60
2023-01-13T03:01:51.123Z,7.60
2023-01-13T03:04:50.369Z,7.70
2023-01-13T03:07:53.256Z,7.70
2023-01-13T03:10:52.127Z,7.70
2023-01-13T03:13:52.179Z,7.70
2023-01-13T03:16:59.358Z,7.60
2023-01-13T03:19:56.519Z,7.70
2023-01-13T03:22:31.848Z,7.70
2023-01-13T03:25:23.023Z,7.70
2023-01-13T03:28:03.004Z,7.70
2023-01-13T03:30:45.112Z,7.80
2023-01-13T03:33:18.712Z,7.80
2023-01-13T03:35:50.707Z,7.90
2023-01-13T03:38:31.233Z,7.90
2023-01-13T03:41:02.775Z,7.90
2023-01-13T03:44:24.241Z,7.90
2023-01-13T03:47:11.449Z,7.90
2023-01-13T03:50:08.384Z,8.00
2023-01-13T03:52:38.227Z,7.90
2023-01-13T03:55:18.655Z,8.00
2023-01-13T03:57:55.639Z,7.90
2023-01-13T04:00:28.749Z,7.90
2023-01-13T04:03:14.836Z,7.90
2023-01-13T04:05:47.742Z,7.90
2023-01-13T04:08:27.736Z,7.80
2023-01-13T04:11:08.195Z,7.80
2023-01-13T04:13:40.154Z,7.80
2023-01-13T04:16:09.227Z,7.90
2023-01-13T04:18:39.738Z,7.90
2023-01-13T04:21:08.018Z,8.00
2023-01-13T04:23:35.329Z,8.00
2023-01-13T04:26:02.452Z,8.00
2023-01-13T04:28:29.534Z,8.00
2023-01-13T04:30:56.679Z,8.00
2023-01-13T04:33:23.785Z,8.00
2023-01-13T04:35:52.542Z,8.00
2023-01-13T04:38:21.748Z,8.00
2023-01-13T04:40:49.036Z,8.00
2023-01-13T04:43:16.442Z,8.00
2023-01-13T04:45:44.852Z,8.10
2023-01-13T04:48:12.049Z,8.00
2023-01-13T04:50:39.296Z,8.00
2023-01-13T04:53:07.112Z,8.00
2023-01-13T04:55:34.259Z,8.00
2023-01-13T04:58:09.972Z,8.00
2023-01-13T05:00:37.799Z,7.90
2023-01-13T05:03:05.246Z,7.90
2023-01-13T05:05:32.333Z,7.80
2023-01-13T05:07:59.559Z,7.80
2023-01-13T05:10:27.583Z,7.80
2023-01-13T05:13:13.296Z,7.80
2023-01-13T05:16:00.547Z,7.80
2023-01-13T05:18:29.706Z,7.80
2023-01-13T05:20:56.973Z,7.80
2023-01-13T05:23:42.464Z,7.80
2023-01-13T05:26:09.582Z,7.80
2023-01-13T05:28:36.556Z,7.80
2023-01-13T05:31:03.595Z,7.80
2023-01-13T05:33:31.124Z,7.80
2023-01-13T05:36:03.432Z,7.90
2023-01-13T05:38:30.838Z,7.80
2023-01-13T05:41:19.029Z,7.80
2023-01-13T05:43:46.389Z,7.80
2023-01-13T05:46:14.813Z,7.80
2023-01-13T05:48:43.445Z,7.80
2023-01-13T05:51:12.798Z,7.80
2023-01-13T05:53:42.914Z,7.80
2023-01-13T05:56:11.297Z,7.80
2023-01-13T05:58:38.745Z,7.80
2023-01-13T06:01:08.865Z,7.80
2023-01-13T06:03:36.923Z,7.80
2023-01-13T06:06:04.682Z,7.90
2023-01-13T06:08:32.566Z,7.90
2023-01-13T06:10:59.652Z,7.90
2023-01-13T06:13:27.108Z,7.90
2023-01-13T06:15:59.050Z,8.00
2023-01-13T06:18:26.808Z,8.00
2023-01-13T06:20:53.885Z,8.00
2023-01-13T06:23:21.129Z,8.00
2023-01-13T06:26:12.847Z,8.00
2023-01-13T06:28:39.839Z,8.00
2023-01-13T06:31:08.879Z,8.00
2023-01-13T06:33:47.637Z,8.00
2023-01-13T06:36:22.225Z,8.00
2023-01-13T06:38:53.899Z,8.00
2023-01-13T06:41:44.238Z,8.00
2023-01-13T06:44:11.413Z,8.00
2023-01-13T06:46:38.774Z,8.00
2023-01-13T06:49:07.423Z,8.00
2023-01-13T06:51:34.703Z,8.00
2023-01-13T06:54:01.720Z,8.00
2023-01-13T06:56:28.714Z,8.00
2023-01-13T06:58:55.729Z,8.00
2023-01-13T07:01:22.984Z,8.00
2023-01-13T07:03:50.241Z,8.00
2023-01-13T07:06:17.210Z,8.00
2023-01-13T07:08:44.271Z,8.00
2023-01-13T07:11:11.347Z,8.00
2023-01-13T07:13:56.755Z,8.00
2023-01-13T07:16:24.344Z,7.90
2023-01-13T07:18:51.615Z,7.90
2023-01-13T07:21:19.989Z,7.90
2023-01-13T07:23:48.200Z,7.80
2023-01-13T07:26:16.031Z,7.80
2023-01-13T07:28:43.284Z,7.80
2023-01-13T07:31:17.400Z,7.70
2023-01-13T07:33:45.044Z,7.80
2023-01-13T07:36:13.057Z,7.70
2023-01-13T07:38:40.693Z,7.70
2023-01-13T07:41:26.412Z,7.60
2023-01-13T07:43:53.514Z,7.60
2023-01-13T07:46:20.599Z,7.50
2023-01-13T07:48:49.052Z,7.50
2023-01-13T07:51:16.375Z,7.40
2023-01-13T07:53:43.382Z,7.40
2023-01-13T07:56:10.822Z,7.40
2023-01-13T07:58:38.102Z,7.30
2023-01-13T08:01:13.679Z,7.30
2023-01-13T08:03:41.307Z,7.30
2023-01-13T08:06:10.383Z,7.30
2023-01-13T08:08:38.698Z,7.30
2023-01-13T08:11:07.612Z,7.20
2023-01-13T08:13:34.668Z,7.20
2023-01-13T08:16:05.875Z,7.20
2023-01-13T08:18:34.461Z,7.20
2023-01-13T08:21:11.896Z,7.20
2023-01-13T08:23:40.672Z,7.20
2023-01-13T08:26:14.608Z,7.20
2023-01-13T08:28:42.194Z,7.20
2023-01-13T08:31:16.161Z,7.20
2023-01-13T08:33:43.544Z,7.20
2023-01-13T08:36:12.647Z,7.20
2023-01-13T08:38:40.981Z,7.20
2023-01-13T08:41:14.732Z,7.20
2023-01-13T08:43:42.149Z,7.20
2023-01-13T08:46:09.485Z,7.20
2023-01-13T08:48:36.960Z,7.20
2023-01-13T08:51:09.417Z,7.20
2023-01-13T08:53:36.852Z,7.20
2023-01-13T08:56:11.660Z,7.20
2023-01-13T08:58:39.123Z,7.20
2023-01-13T09:01:07.296Z,7.20
2023-01-13T09:03:34.668Z,7.20
2023-01-13T09:06:02.021Z,7.20
2023-01-13T09:08:29.255Z,7.20
2023-01-13T09:10:57.367Z,7.20
2023-01-13T09:13:24.646Z,7.30
2023-01-13T09:15:55.855Z,7.30
2023-01-13T09:18:24.169Z,7.40
2023-01-13T09:20:51.224Z,7.40
2023-01-13T09:23:18.226Z,7.40
2023-01-13T09:25:46.275Z,7.50
2023-01-13T09:28:13.347Z,7.50
2023-01-13T09:30:40.297Z,7.60
2023-01-13T09:33:25.961Z,7.70
2023-01-13T09:35:59.133Z,7.70
2023-01-13T09:38:26.421Z,7.70
2023-01-13T09:40:54.609Z,7.70
2023-01-13T09:43:46.530Z,7.70
2023-01-13T09:46:47.062Z,7.70
2023-01-13T09:49:28.416Z,7.60
2023-01-13T09:52:03.772Z,7.60
2023-01-13T09:55:03.156Z,7.60
2023-01-13T09:57:37.224Z,7.60
2023-01-13T10:00:20.990Z,7.50
2023-01-13T10:03:09.701Z,7.50
2023-01-13T10:05:41.136Z,7.60
2023-01-13T10:08:24.379Z,7.60
2023-01-13T10:10:56.092Z,7.60
2023-01-13T10:13:30.697Z,7.60
2023-01-13T10:16:12.863Z,7.60
2023-01-13T10:18:46.005Z,7.60
2023-01-13T10:21:41.912Z,7.60
2023-01-13T10:24:47.362Z,7.60
2023-01-13T10:27:33.038Z,7.70
2023-01-13T10:30:31.604Z,7.70
2023-01-13T10:33:32.318Z,7.70
2023-01-13T10:36:02.639Z,7.70
2023-01-13T10:38:39.669Z,7.70
2023-01-13T10:41:15.785Z,7.70
2023-01-13T10:43:44.045Z,7.70
2023-01-13T10:46:17.476Z,7.70
2023-01-13T10:48:57.909Z,7.70
2023-01-13T10:51:29.870Z,7.70
2023-01-13T10:54:20.435Z,7.80
2023-01-13T10:56:47.424Z,7.80
2023-01-13T10:59:23.912Z,7.70
2023-01-13T11:02:44.732Z,7.70
2023-01-13T11:05:25.289Z,7.70
2023-01-13T11:07:55.009Z,7.70
2023-01-13T11:10:27.832Z,7.70
2023-01-13T11:13:26.215Z,7.70
2023-01-13T11:16:16.619Z,7.70
2023-01-13T11:19:02.632Z,7.70
2023-01-13T11:21:40.162Z,7.70
2023-01-13T11:24:20.314Z,7.80
2023-01-13T11:27:16.164Z,7.70
2023-01-13T11:30:26.202Z,7.70
2023-01-13T11:33:11.493Z,7.70
2023-01-13T11:35:57.826Z,7.70
2023-01-13T11:38:33.548Z,7.70
2023-01-13T11:41:17.222Z,7.70
2023-01-13T11:44:17.380Z,7.70
2023-01-13T11:46:44.751Z,7.70
2023-01-13T11:49:27.487Z,7.70
2023-01-13T11:52:38.917Z,7.80
2023-01-13T11:55:22.964Z,7.80
2023-01-13T11:57:52.925Z,7.80
2023-01-13T12:00:38.799Z,7.80
2023-01-13T12:03:26.905Z,7.90
2023-01-13T12:06:15.678Z,7.90
2023-01-13T12:08:50.640Z,8.00
2023-01-13T12:11:59.006Z,8.10
2023-01-13T12:14:53.180Z,8.10
2023-01-13T12:17:42.603Z,8.10
2023-01-13T12:20:30.369Z,8.20
2023-01-13T12:23:03.751Z,8.20
2023-01-13T12:25:39.537Z,8.20
2023-01-13T12:28:25.176Z,8.30
2023-01-13T12:30:59.844Z,8.40
2023-01-13T12:33:38.965Z,8.40
2023-01-13T12:36:35.016Z,8.40
2023-01-13T12:39:42.807Z,8.40
2023-01-13T12:42:51.286Z,8.40
2023-01-13T12:45:31.317Z,8.40
2023-01-13T12:47:59.921Z,8.40
2023-01-13T12:50:27.004Z,8.40
2023-01-13T12:52:59.625Z,8.40
2023-01-13T12:55:36.289Z,8.40
2023-01-13T12:58:06.216Z,8.50
2023-01-13T13:00:40.773Z,8.50
2023-01-13T13:03:19.295Z,8.50
2023-01-13T13:06:16.524Z,8.50
2023-01-13T13:09:06.613Z,8.50
2023-01-13T13:11:59.584Z,8.50
2023-01-13T13:14:49.363Z,8.50
2023-01-13T13:17:28.522Z,8.50
2023-01-13T13:19:57.618Z,8.50
2023-01-13T13:22:27.669Z,8.50
2023-01-13T13:24:54.700Z,8.50
2023-01-13T13:27:37.020Z,8.50
2023-01-13T13:30:18.359Z,8.50
2023-01-13T13:33:48.942Z,8.50
2023-01-13T13:36:46.647Z,8.60
2023-01-13T13:39:45.593Z,8.60
2023-01-13T13:42:39.233Z,8.60
2023-01-13T13:45:40.444Z,8.70
2023-01-13T13:48:33.890Z,8.70
2023-01-13T13:51:07.224Z,8.70
2023-01-13T13:53:38.647Z,8.70
2023-01-13T13:56:21.617Z,8.70
2023-01-13T13:58:50.478Z,8.70
2023-01-13T14:02:13.157Z,8.70
2023-01-13T14:05:37.532Z,8.60
2023-01-13T14:08:33.722Z,8.60
2023-01-13T14:11:41.756Z,8.50
2023-01-13T14:14:21.392Z,8.50
2023-01-13T14:16:56.195Z,8.50
2023-01-13T14:19:40.669Z,8.50
2023-01-13T14:22:23.971Z,8.50
2023-01-13T14:25:02.284Z,8.50
2023-01-13T14:27:54.489Z,8.40
2023-01-13T14:30:30.383Z,8.40
2023-01-13T14:33:02.081Z,8.40
2023-01-13T14:35:39.230Z,8.40
2023-01-13T14:38:17.230Z,8.30
2023-01-13T14:40:58.101Z,8.30
2023-01-13T14:43:31.803Z,8.20
2023-01-13T14:46:09.382Z,8.20
2023-01-13T14:48:48.400Z,8.20
2023-01-13T14:51:35.060Z,8.10
2023-01-13T14:54:06.357Z,8.10
2023-01-13T14:57:08.029Z,8.10
2023-01-13T14:59:54.948Z,8.20
2023-01-13T15:02:34.808Z,8.20
2023-01-13T15:05:26.709Z,8.30
2023-01-13T15:08:00.818Z,8.30
2023-01-13T15:10:53.907Z,8.40
2023-01-13T15:13:48.211Z,8.40
2023-01-13T15:16:28.088Z,8.40
2023-01-13T15:18:56.507Z,8.40
2023-01-13T15:21:23.912Z,8.50
2023-01-13T15:23:51.414Z,8.40
2023-01-13T15:26:24.834Z,8.40
2023-01-13T15:28:53.782Z,8.40
2023-01-13T15:31:22.339Z,8.40
2023-01-13T15:33:49.874Z,8.40
2023-01-13T15:36:32.555Z,8.30
2023-01-13T15:39:01.204Z,8.30
2023-01-13T15:41:49.871Z,8.20
2023-01-13T15:44:36.157Z,8.20
2023-01-13T15:47:06.903Z,8.10
2023-01-13T15:49:41.320Z,8.10
2023-01-13T15:52:24.927Z,8.00
2023-01-13T15:54:53.662Z,7.90
2023-01-13T15:57:29.649Z,7.90
2023-01-13T15:59:58.928Z,7.90
2023-01-13T16:02:26.672Z,7.90
2023-01-13T16:04:56.600Z,7.80
2023-01-13T16:07:25.190Z,7.80
2023-01-13T16:09:52.855Z,7.90
2023-01-13T16:12:20.375Z,7.90
2023-01-13T16:14:47.573Z,7.80
2023-01-13T16:17:21.659Z,7.80
2023-01-13T16:19:49.803Z,7.80
2023-01-13T16:22:17.440Z,7.90
2023-01-13T16:24:44.945Z,7.80
2023-01-13T16:27:18.434Z,7.80
2023-01-13T16:29:47.110Z,7.80
2023-01-13T16:32:14.746Z,7.80
2023-01-13T16:34:41.913Z,7.80
2023-01-13T16:37:23.854Z,7.90
2023-01-13T16:39:52.597Z,7.90
2023-01-13T16:42:21.158Z,7.80
2023-01-13T16:44:49.103Z,7.80
2023-01-13T16:47:18.111Z,7.70
2023-01-13T16:49:45.813Z,7.60
2023-01-13T16:52:13.044Z,7.60
2023-01-13T16:54:40.202Z,7.60
2023-01-13T16:57:09.870Z,7.60
2023-01-13T16:59:36.997Z,7.60
2023-01-13T17:02:05.139Z,7.60
2023-01-13T17:04:32.217Z,7.60
2023-01-13T17:07:06.860Z,7.60
2023-01-13T17:09:34.120Z,7.60
2023-01-13T17:12:01.519Z,7.60
2023-01-13T17:14:28.543Z,7.50
2023-01-13T17:16:58.026Z,7.50
2023-01-13T17:19:25.762Z,7.50
2023-01-13T17:21:52.919Z,7.50
2023-01-13T17:24:20.667Z,7.50
2023-01-13T17:26:50.882Z,7.50
2023-01-13T17:29:23.244Z,7.50
2023-01-13T17:31:51.431Z,7.50
2023-01-13T17:34:19.766Z,7.50
2023-01-13T17:36:47.121Z,7.50
2023-01-13T17:39:26.206Z,7.50
2023-01-13T17:41:55.879Z,7.50
2023-01-13T17:44:23.541Z,7.50
2023-01-13T17:46:50.638Z,7.40
2023-01-13T17:49:19.770Z,7.50
2023-01-13T17:51:51.099Z,7.50
2023-01-13T17:54:18.675Z,7.50
2023-01-13T17:56:45.733Z,7.50
2023-01-13T17:59:14.570Z,7.50
2023-01-13T18:01:41.954Z,7.50
2023-01-13T18:04:16.508Z,7.50
2023-01-13T18:06:43.977Z,7.50
2023-01-13T18:09:11.567Z,7.50
2023-01-13T18:11:38.886Z,7.40
2023-01-13T18:14:06.200Z,7.40
2023-01-13T18:16:33.360Z,7.40
2023-01-13T18:19:19.821Z,7.30
2023-01-13T18:22:06.379Z,7.30
2023-01-13T18:24:52.007Z,7.30
2023-01-13T18:27:27.113Z,7.30
2023-01-13T18:29:57.277Z,7.30
2023-01-13T18:32:32.933Z,7.30
2023-01-13T18:35:06.443Z,7.30
2023-01-13T18:37:36.128Z,7.40
2023-01-13T18:40:05.040Z,7.30
2023-01-13T18:42:50.720Z,7.30
2023-01-13T18:45:29.817Z,7.30
2023-01-13T18:48:00.501Z,7.30
2023-01-13T18:50:28.325Z,7.40
2023-01-13T18:52:55.995Z,7.30
2023-01-13T18:55:23.711Z,7.40
2023-01-13T18:57:51.237Z,7.40
2023-01-13T19:00:21.580Z,7.40
2023-01-13T19:05:34.777Z,7.20
2023-01-13T19:08:02.661Z,7.20
2023-01-13T19:10:32.253Z,7.10
2023-01-13T19:13:01.315Z,7.10
2023-01-13T19:15:28.548Z,7.10
2023-01-13T19:17:55.785Z,7.00
2023-01-13T19:20:22.880Z,7.10
2023-01-13T19:22:54.209Z,7.10
2023-01-13T19:25:21.626Z,7.20
2023-01-13T19:27:48.732Z,7.20
2023-01-13T19:30:17.261Z,7.20
2023-01-13T19:32:44.376Z,7.20
2023-01-13T19:35:13.083Z,7.20
2023-01-13T19:37:40.327Z,7.20
2023-01-13T19:40:09.416Z,7.20
2023-01-13T19:42:55.752Z,7.30
2023-01-13T19:45:30.534Z,7.30
2023-01-13T19:48:01.788Z,7.20
2023-01-13T19:50:29.237Z,7.20
2023-01-13T19:52:56.340Z,7.20
2023-01-13T19:55:23.967Z,7.20
2023-01-13T19:57:51.044Z,7.20
2023-01-13T20:00:21.048Z,7.20
2023-01-13T20:02:51.696Z,7.20
2023-01-13T20:05:24.299Z,7.20
2023-01-13T20:07:51.941Z,7.30
2023-01-13T20:10:21.620Z,7.30
2023-01-13T20:12:48.819Z,7.30
2023-01-13T20:15:15.999Z,7.30
2023-01-13T20:17:43.116Z,7.30
2023-01-13T20:20:11.896Z,7.30
2023-01-13T20:22:39.891Z,7.30
2023-01-13T20:25:08.468Z,7.20
2023-01-13T20:27:36.789Z,7.20
2023-01-13T20:30:09.419Z,7.20
2023-01-13T20:32:37.160Z,7.20
2023-01-13T20:35:05.004Z,7.20
2023-01-13T20:37:32.101Z,7.20
2023-01-13T20:40:01.623Z,7.20
2023-01-13T20:42:34.620Z,7.30
2023-01-13T20:45:01.925Z,7.30
2023-01-13T20:47:29.929Z,7.30
2023-01-13T20:49:57.467Z,7.30
2023-01-13T20:52:24.732Z,7.30
2023-01-13T20:54:52.018Z,7.20
2023-01-13T20:57:19.335Z,7.20
2023-01-13T20:59:46.448Z,7.20
2023-01-13T21:02:16.475Z,7.20
2023-01-13T21:04:44.035Z,7.20
2023-01-13T21:07:11.357Z,7.20
2023-01-13T21:09:38.577Z,7.20
2023-01-13T21:12:25.038Z,7.30
2023-01-13T21:15:10.720Z,7.30
2023-01-13T21:17:56.212Z,7.20
2023-01-13T21:20:23.439Z,7.20
2023-01-13T21:22:50.633Z,7.30
2023-01-13T21:25:19.007Z,7.30
2023-01-13T21:27:46.558Z,7.30
2023-01-13T21:30:16.929Z,7.30
2023-01-13T21:32:45.389Z,7.30
2023-01-13T21:35:14.333Z,7.40
2023-01-13T21:37:43.254Z,7.40
2023-01-13T21:40:13.781Z,7.40
2023-01-13T21:43:00.282Z,7.50
2023-01-13T21:45:45.872Z,7.50
2023-01-13T21:48:12.889Z,7.60
2023-01-13T21:50:40.331Z,7.60
2023-01-13T21:53:08.032Z,7.60
2023-01-13T21:55:36.798Z,7.60
2023-01-13T21:58:12.683Z,7.60
2023-01-13T22:00:43.153Z,7.60
2023-01-13T22:03:12.443Z,7.60
2023-01-13T22:05:40.711Z,7.60
2023-01-13T22:08:08.002Z,7.50
2023-01-13T22:10:35.519Z,7.40
2023-01-13T22:13:23.502Z,7.40
2023-01-13T22:15:50.514Z,7.30
2023-01-13T22:18:20.035Z,7.40
2023-01-13T22:20:47.253Z,7.40
2023-01-13T22:23:14.272Z,7.40
2023-01-13T22:25:41.268Z,7.50
2023-01-13T22:28:09.283Z,7.50
2023-01-13T22:30:36.769Z,7.50
2023-01-13T22:33:04.122Z,7.50
2023-01-13T22:35:31.149Z,7.50
2023-01-13T22:37:58.792Z,7.50
2023-01-13T22:40:25.999Z,7.60
2023-01-13T22:42:53.026Z,7.60
2023-01-13T22:45:20.131Z,7.60
2023-01-13T22:47:47.907Z,7.60
2023-01-13T22:50:16.652Z,7.60
2023-01-13T22:52:43.688Z,7.60
2023-01-13T22:55:10.723Z,7.60
2023-01-13T22:57:47.393Z,7.60
2023-01-13T23:00:19.026Z,7.70
2023-01-13T23:02:46.764Z,7.70
2023-01-13T23:05:13.988Z,7.70
2023-01-13T23:07:41.243Z,7.70
2023-01-13T23:10:09.094Z,7.70
2023-01-13T23:12:36.395Z,7.70
2023-01-13T23:15:04.314Z,7.70
2023-01-13T23:17:31.395Z,7.70
2023-01-13T23:19:58.436Z,7.70
2023-01-13T23:22:25.677Z,7.70
2023-01-13T23:24:52.666Z,7.60
2023-01-13T23:27:19.704Z,7.70
2023-01-13T23:29:46.768Z,7.70
2023-01-13T23:32:13.791Z,7.70
2023-01-13T23:34:40.816Z,7.70
2023-01-13T23:37:07.833Z,7.70
2023-01-13T23:39:34.829Z,7.60
2023-01-13T23:42:01.894Z,7.60
2023-01-13T23:44:29.404Z,7.50
2023-01-13T23:46:56.455Z,7.50
2023-01-13T23:49:23.435Z,7.50
2023-01-13T23:51:51.598Z,7.50
2023-01-13T23:54:19.181Z,7.60
2023-01-13T23:56:46.295Z,7.60
2023-01-13T23:59:13.366Z,7.50
